createdAt,value
2018-05-02T00:03:42.451Z,5.90
2018-05-02T00:08:45.642Z,5.90
2018-05-02T00:13:48.447Z,6.00
2018-05-02T00:18:51.292Z,6.00
2018-05-02T00:23:54.871Z,5.70
2018-05-02T00:28:57.640Z,5.60
2018-05-02T00:34:00.495Z,5.50
2018-05-02T00:39:03.374Z,5.40
2018-05-02T00:44:06.256Z,5.40
2018-05-02T00:49:17.724Z,5.30
2018-05-02T00:54:22.630Z,5.20
2018-05-02T00:59:25.431Z,5.10
2018-05-02T01:04:29.099Z,5.40
2018-05-02T01:09:33.613Z,5.60
2018-05-02T01:14:36.381Z,5.50
2018-05-02T01:19:39.165Z,5.60
2018-05-02T01:24:41.964Z,5.50
2018-05-02T01:29:44.750Z,5.40
2018-05-02T01:34:48.465Z,5.30
2018-05-02T01:45:08.680Z,5.10
2018-05-02T01:50:12.241Z,5.00
2018-05-02T01:55:16.570Z,4.90
2018-05-02T02:00:21.151Z,4.90
2018-05-02T02:05:23.930Z,4.90
2018-05-02T02:10:27.522Z,4.70
2018-05-02T02:15:30.324Z,4.70
2018-05-02T02:20:33.084Z,4.70
2018-05-02T02:25:35.849Z,4.60
2018-05-02T02:30:39.076Z,4.50
2018-05-02T02:35:41.858Z,4.50
2018-05-02T02:40:44.962Z,4.50
2018-05-02T02:45:47.727Z,4.20
2018-05-02T02:50:50.532Z,4.20
2018-05-02T02:55:53.324Z,4.10
2018-05-02T03:00:56.186Z,3.90
2018-05-02T03:05:58.979Z,4.00
2018-05-02T03:11:01.752Z,4.00
2018-05-02T03:16:05.140Z,3.90
2018-05-02T03:21:07.928Z,3.70
2018-05-02T03:26:10.700Z,3.80
2018-05-02T03:31:15.089Z,3.80
2018-05-02T03:36:17.871Z,3.70
2018-05-02T03:41:20.659Z,3.80
2018-05-02T03:46:24.335Z,3.90
2018-05-02T03:51:27.238Z,4.00
2018-05-02T03:56:30.019Z,4.00
2018-05-02T04:01:44.734Z,4.00
2018-05-02T04:07:09.140Z,4.00
2018-05-02T04:12:12.748Z,4.10
2018-05-02T04:17:15.591Z,4.00
2018-05-02T04:22:18.351Z,4.20
2018-05-02T04:27:21.910Z,4.30
2018-05-02T04:32:24.665Z,4.20
2018-05-02T04:37:28.884Z,4.50
2018-05-02T04:42:31.747Z,4.80
2018-05-02T04:47:35.281Z,5.10
2018-05-02T04:52:38.128Z,5.00
2018-05-02T04:57:40.839Z,5.40
2018-05-02T05:02:43.626Z,5.70
2018-05-02T05:07:46.430Z,6.00
2018-05-02T05:12:49.231Z,6.20
2018-05-02T05:17:52.103Z,6.20
2018-05-02T05:22:55.756Z,6.40
2018-05-02T05:27:59.592Z,6.30
2018-05-02T05:33:04.086Z,6.60
2018-05-02T05:38:06.884Z,7.00
2018-05-02T05:43:10.712Z,7.10
2018-05-02T05:48:14.224Z,7.30
2018-05-02T05:53:17.056Z,7.50
2018-05-02T05:58:19.854Z,7.70
2018-05-02T06:03:22.724Z,7.90
2018-05-02T06:08:28.523Z,8.20
2018-05-02T06:13:32.677Z,8.90
2018-05-02T06:18:36.289Z,8.90
2018-05-02T06:23:40.598Z,9.30
2018-05-02T06:28:46.716Z,9.70
2018-05-02T06:33:49.505Z,9.70
2018-05-02T06:38:52.303Z,10.20
2018-05-02T06:43:55.114Z,10.50
2018-05-02T06:48:58.932Z,10.70
2018-05-02T06:54:02.853Z,10.90
2018-05-02T06:59:06.206Z,11.00
2018-05-02T07:04:09.418Z,11.20
2018-05-02T07:09:13.236Z,11.10
2018-05-02T07:14:16.046Z,11.10
2018-05-02T07:19:26.513Z,11.40
2018-05-02T07:24:29.518Z,11.30
2018-05-02T07:29:33.969Z,12.10
2018-05-02T07:34:37.880Z,12.00
2018-05-02T07:45:04.315Z,12.60
2018-05-02T07:50:07.440Z,12.50
2018-05-02T07:55:11.094Z,13.00
2018-05-02T08:00:15.732Z,13.90
2018-05-02T08:05:20.063Z,14.20
2018-05-02T08:10:22.905Z,14.20
2018-05-02T08:15:25.705Z,14.40
2018-05-02T08:20:28.554Z,14.90
2018-05-02T08:25:33.901Z,15.00
2018-05-02T08:30:37.349Z,15.50
2018-05-02T08:35:40.122Z,15.80
2018-05-02T08:40:42.920Z,16.20
2018-05-02T08:45:47.221Z,16.40
2018-05-02T08:50:49.990Z,16.30
2018-05-02T08:55:52.784Z,16.30
2018-05-02T09:00:55.573Z,16.70
2018-05-02T09:06:01.258Z,17.00
2018-05-02T09:11:05.233Z,17.20
2018-05-02T09:16:08.783Z,17.70
2018-05-02T09:21:11.531Z,17.60
2018-05-02T09:26:14.973Z,17.60
2018-05-02T09:31:18.464Z,17.60
2018-05-02T09:36:21.256Z,17.80
2018-05-02T09:41:30.265Z,17.90
2018-05-02T09:46:33.152Z,17.90
2018-05-02T09:51:35.931Z,18.10
2018-05-02T09:56:38.711Z,18.30
2018-05-02T10:01:42.242Z,18.40
2018-05-02T10:06:45.605Z,18.40
2018-05-02T10:11:49.178Z,18.70
2018-05-02T10:16:51.992Z,18.60
2018-05-02T10:22:08.503Z,18.70
2018-05-02T10:27:14.060Z,18.80
2018-05-02T10:32:16.883Z,19.10
2018-05-02T10:37:20.322Z,19.40
2018-05-02T10:42:24.143Z,19.50
2018-05-02T10:47:26.962Z,19.90
2018-05-02T10:52:30.417Z,20.00
2018-05-02T10:57:34.140Z,19.70
2018-05-02T11:02:36.969Z,19.60
2018-05-02T11:07:39.806Z,19.80
2018-05-02T11:12:44.449Z,19.80
2018-05-02T11:17:47.307Z,19.90
2018-05-02T11:22:50.137Z,20.40
2018-05-02T11:27:53.742Z,20.70
2018-05-02T11:32:56.569Z,20.70
2018-05-02T11:37:59.422Z,20.90
2018-05-02T11:43:03.040Z,21.00
2018-05-02T11:48:05.928Z,21.00
2018-05-02T11:53:09.620Z,21.60
2018-05-02T11:58:12.584Z,21.50
2018-05-02T12:03:16.220Z,21.40
2018-05-02T12:08:19.755Z,21.30
2018-05-02T12:13:23.570Z,21.40
2018-05-02T12:18:26.676Z,21.20
2018-05-02T12:23:31.451Z,21.20
2018-05-02T12:28:35.411Z,21.30
2018-05-02T12:33:38.283Z,21.20
2018-05-02T12:38:46.095Z,21.10
2018-05-02T12:43:49.724Z,21.30
2018-05-02T12:48:53.953Z,21.10
2018-05-02T12:53:57.703Z,21.00
2018-05-02T12:59:00.552Z,21.00
2018-05-02T13:04:03.666Z,21.10
2018-05-02T13:09:08.255Z,20.60
2018-05-02T13:14:11.724Z,20.50
2018-05-02T13:19:15.169Z,20.80
2018-05-02T13:24:17.980Z,20.80
2018-05-02T13:29:21.747Z,20.90
2018-05-02T13:34:25.556Z,20.90
2018-05-02T13:39:29.381Z,21.10
2018-05-02T13:44:32.179Z,21.60
2018-05-02T13:49:38.086Z,21.60
2018-05-02T13:54:40.886Z,21.60
2018-05-02T13:59:46.179Z,21.70
2018-05-02T14:04:49.607Z,21.60
2018-05-02T14:09:52.445Z,21.20
2018-05-02T14:14:55.250Z,20.90
2018-05-02T14:19:58.074Z,20.90
2018-05-02T14:25:00.929Z,21.10
2018-05-02T14:30:03.822Z,21.20
2018-05-02T14:35:12.306Z,21.50
2018-05-02T14:40:15.106Z,21.50
2018-05-02T14:45:17.940Z,21.40
2018-05-02T14:50:20.771Z,21.40
2018-05-02T14:55:24.193Z,21.40
2018-05-02T15:00:28.056Z,21.20
2018-05-02T15:05:30.861Z,21.70
2018-05-02T15:10:35.446Z,22.00
2018-05-02T15:15:38.304Z,22.30
2018-05-02T15:20:42.926Z,22.50
2018-05-02T15:25:46.752Z,22.70
2018-05-02T15:30:49.557Z,22.90
2018-05-02T15:36:00.621Z,22.80
2018-05-02T15:41:17.876Z,22.10
2018-05-02T15:46:21.483Z,22.30
2018-05-02T16:02:09.981Z,21.70
2018-05-02T16:07:12.770Z,21.30
2018-05-02T16:12:15.584Z,21.40
2018-05-02T16:17:18.563Z,21.30
2018-05-02T16:22:21.336Z,21.10
2018-05-02T16:27:24.426Z,20.30
2018-05-02T16:32:29.478Z,20.40
2018-05-02T16:37:32.257Z,20.20
2018-05-02T16:42:35.086Z,20.20
2018-05-02T16:47:37.895Z,20.30
2018-05-02T16:52:41.016Z,20.30
2018-05-02T16:57:44.728Z,19.80
2018-05-02T17:02:47.829Z,19.70
2018-05-02T17:07:51.429Z,19.70
2018-05-02T17:12:54.610Z,19.50
2018-05-02T17:17:58.515Z,19.30
2018-05-02T17:23:09.811Z,19.20
2018-05-02T17:28:14.262Z,19.10
2018-05-02T17:33:18.050Z,18.80
2018-05-02T17:38:21.581Z,18.70
2018-05-02T17:43:24.444Z,18.60
2018-05-02T17:48:28.439Z,18.50
2018-05-02T17:53:31.751Z,18.30
2018-05-02T17:58:34.526Z,18.30
2018-05-02T18:03:39.053Z,18.20
2018-05-02T18:08:43.328Z,17.80
2018-05-02T18:13:55.741Z,17.80
2018-05-02T18:18:59.547Z,17.70
2018-05-02T18:24:03.552Z,17.60
2018-05-02T18:29:06.363Z,17.40
2018-05-02T18:34:10.263Z,17.30
2018-05-02T18:39:13.751Z,17.10
2018-05-02T18:44:18.583Z,16.90
2018-05-02T18:49:21.393Z,16.70
2018-05-02T18:54:24.187Z,16.60
2018-05-02T18:59:28.221Z,16.60
2018-05-02T19:04:31.078Z,16.30
2018-05-02T19:09:35.638Z,16.00
2018-05-02T19:14:42.406Z,16.00
2018-05-02T19:19:52.304Z,15.50
2018-05-02T19:25:00.727Z,15.50
2018-05-02T19:30:05.261Z,15.50
2018-05-02T19:35:08.080Z,15.40
2018-05-02T19:40:16.479Z,15.20
2018-05-02T19:45:20.008Z,15.20
2018-05-02T19:50:23.573Z,15.10
2018-05-02T19:55:26.604Z,15.00
2018-05-02T20:00:35.161Z,14.90
2018-05-02T20:05:39.112Z,14.80
2018-05-02T20:10:47.647Z,14.70
2018-05-02T20:15:50.935Z,14.50
2018-05-02T20:20:57.065Z,14.40
2018-05-02T20:31:11.614Z,14.20
2018-05-02T20:36:16.263Z,13.90
2018-05-02T20:41:19.275Z,13.90
2018-05-02T20:46:22.189Z,13.90
2018-05-02T20:51:25.026Z,13.70
2018-05-02T20:56:27.879Z,13.70
2018-05-02T21:01:31.495Z,13.80
2018-05-02T21:06:37.544Z,13.70
2018-05-02T21:11:40.358Z,13.60
2018-05-02T21:16:46.709Z,13.70
2018-05-02T21:21:49.654Z,13.60
2018-05-02T21:26:52.471Z,13.60
2018-05-02T21:31:55.282Z,13.40
2018-05-02T21:36:58.065Z,13.30
2018-05-02T21:42:00.902Z,13.10
2018-05-02T21:47:03.754Z,13.00
2018-05-02T21:52:06.607Z,13.00
2018-05-02T21:57:10.171Z,13.00
2018-05-02T22:02:12.989Z,12.90
2018-05-02T22:07:15.783Z,12.80
2018-05-02T22:12:18.576Z,12.80
2018-05-02T22:17:21.361Z,12.80
2018-05-02T22:22:24.186Z,12.80
2018-05-02T22:27:27.022Z,12.80
2018-05-02T22:32:30.619Z,12.70
2018-05-02T22:37:34.183Z,12.60
2018-05-02T22:42:36.989Z,12.60
2018-05-02T22:47:39.820Z,12.50
2018-05-02T22:52:42.655Z,12.40
2018-05-02T22:57:46.245Z,12.10
2018-05-02T23:02:49.061Z,12.10
2018-05-02T23:07:51.843Z,12.00
2018-05-02T23:12:54.649Z,11.80
2018-05-02T23:17:57.440Z,11.60
2018-05-02T23:23:00.239Z,11.50
2018-05-02T23:28:03.048Z,11.60
2018-05-02T23:33:05.935Z,11.50
2018-05-02T23:38:09.179Z,11.50
2018-05-02T23:43:12.824Z,11.40
2018-05-02T23:48:15.729Z,11.30
2018-05-02T23:53:18.651Z,11.00
2018-05-02T23:58:21.576Z,11.00
